Time;durP1;ratioP1;P1;durP2;ratioP2;P2;SDS_P1;SDS_P2;PMS_P1;PMS_P2;Temp;Humidity;BMP_temperature;BMP_pressure;BME280_temperature;BME280_humidity;BME280_pressure;Samples;Min_cycle;Max_cycle;Signal;HPM_P1;HPM_P2
2022/09/12 00:00:25;;;;;;;10.88;7.90;;;;;;;13.42;75.31;99062.50;5039965;28;20033;-82
2022/09/12 00:02:54;;;;;;;7.70;5.85;;;;;;;13.40;76.91;99075.38;5065435;28;20039;-82
2022/09/12 00:05:20;;;;;;;8.55;5.88;;;;;;;13.94;75.22;99075.00;5063685;28;20463;-82
2022/09/12 00:07:46;;;;;;;6.82;5.93;;;;;;;14.12;74.06;99045.00;5041349;28;20075;-82
2022/09/12 00:10:11;;;;;;;14.02;9.00;;;;;;;13.39;74.86;99064.88;5057375;28;20032;-82
2022/09/12 00:12:36;;;;;;;7.53;5.97;;;;;;;12.97;76.85;99048.84;5047322;28;20124;-82
2022/09/12 00:15:03;;;;;;;9.52;6.57;;;;;;;13.87;75.01;99051.13;5058622;28;20047;-83
2022/09/12 00:17:28;;;;;;;10.32;5.82;;;;;;;14.11;73.70;99071.03;5041698;28;20066;-83
2022/09/12 00:19:54;;;;;;;8.18;5.45;;;;;;;14.18;73.62;99047.44;5026359;28;20024;-83
2022/09/12 00:22:20;;;;;;;7.20;5.95;;;;;;;14.36;72.93;99054.19;5064272;28;20060;-83
2022/09/12 00:24:45;;;;;;;6.95;5.90;;;;;;;14.27;72.49;99053.06;5058862;28;20115;-82
2022/09/12 00:27:10;;;;;;;7.68;5.40;;;;;;;14.30;72.88;99031.09;5048538;28;20036;-83
2022/09/12 00:29:36;;;;;;;8.05;5.93;;;;;;;14.37;72.52;99045.06;5043461;28;20502;-83
2022/09/12 00:32:01;;;;;;;7.38;5.78;;;;;;;14.33;73.11;99067.34;5061423;28;20037;-83
2022/09/12 00:34:26;;;;;;;9.40;6.28;;;;;;;14.38;72.70;99053.91;5064856;28;20029;-83
2022/09/12 00:36:52;;;;;;;8.65;6.68;;;;;;;13.97;73.60;99051.16;5045015;28;20043;-83
2022/09/12 00:39:18;;;;;;;8.57;5.72;;;;;;;14.20;73.48;99057.88;5059606;28;20024;-82
2022/09/12 00:41:43;;;;;;;9.10;5.82;;;;;;;14.32;72.69;99046.94;5046634;28;20060;-82
2022/09/12 00:44:08;;;;;;;6.60;5.35;;;;;;;14.40;72.72;99052.59;5043576;28;20032;-82
2022/09/12 00:46:40;;;;;;;8.70;5.22;;;;;;;14.36;72.67;99048.81;5059665;28;20024;-82
2022/09/12 00:49:14;;;;;;;12.02;7.50;;;;;;;13.23;74.89;99050.63;5061008;28;20044;-82
2022/09/12 00:51:47;;;;;;;10.35;6.47;;;;;;;12.44;78.10;99044.44;5065873;28;20029;-82
2022/09/12 00:54:18;;;;;;;6.20;5.60;;;;;;;13.54;75.18;99036.25;5067578;28;20144;-82
2022/09/12 00:56:46;;;;;;;7.10;6.03;;;;;;;13.96;74.34;99044.16;5061932;28;20395;-82
2022/09/12 00:59:16;;;;;;;6.38;5.50;;;;;;;14.12;73.33;99053.06;5056055;28;20028;-81
2022/09/12 01:01:45;;;;;;;7.60;5.63;;;;;;;14.05;73.11;99039.06;5059059;28;20139;-82
2022/09/12 01:04:12;;;;;;;8.73;6.00;;;;;;;14.07;73.16;99027.00;5065717;28;20040;-82
2022/09/12 01:06:43;;;;;;;9.13;5.82;;;;;;;14.21;72.94;99044.22;5060335;28;20078;-82
2022/09/12 01:09:13;;;;;;;7.93;5.30;;;;;;;14.12;72.86;99042.31;5062864;28;20107;-82
2022/09/12 01:11:39;;;;;;;7.40;5.72;;;;;;;14.17;72.43;99037.78;5064220;28;20036;-82
2022/09/12 01:14:05;;;;;;;6.47;5.38;;;;;;;14.12;72.36;99013.59;5062264;28;20034;-82
2022/09/12 01:16:35;;;;;;;7.55;5.18;;;;;;;14.05;72.43;99004.19;5033553;28;20032;-83
2022/09/12 01:19:26;;;;;;;8.23;5.82;;;;;;;14.08;73.02;99028.63;5060948;28;20434;-82
2022/09/12 01:22:16;;;;;;;9.98;6.75;;;;;;;13.99;73.06;99024.84;5064424;28;20115;-82
2022/09/12 01:24:50;;;;;;;8.52;5.32;;;;;;;14.07;73.24;99027.00;5069914;28;20029;-82
2022/09/12 01:27:27;;;;;;;10.20;6.50;;;;;;;14.14;72.77;99021.38;5065540;28;20033;-81
2022/09/12 01:30:18;;;;;;;8.45;6.07;;;;;;;14.15;72.64;99031.06;5064116;28;20166;-82
2022/09/12 01:32:52;;;;;;;11.15;7.68;;;;;;;13.77;72.87;99029.63;5061637;28;20044;-82
2022/09/12 01:35:28;;;;;;;17.20;9.02;;;;;;;12.53;76.79;99028.69;5069845;28;20032;-82
2022/09/12 01:38:06;;;;;;;13.68;9.80;;;;;;;12.63;76.56;99026.09;5058530;28;20024;-82
2022/09/12 01:40:44;;;;;;;13.07;7.25;;;;;;;13.21;75.66;99001.84;5066169;28;20043;-82
2022/09/12 01:43:22;;;;;;;9.40;5.65;;;;;;;13.80;74.13;99031.81;5066574;28;20021;-82
2022/09/12 01:45:56;;;;;;;8.45;5.93;;;;;;;13.78;73.80;99028.53;5062498;28;20119;-82
2022/09/12 01:48:27;;;;;;;8.98;6.57;;;;;;;13.93;72.88;99017.06;5068747;28;20060;-82
2022/09/12 01:51:12;;;;;;;9.00;6.90;;;;;;;13.83;72.64;99000.94;5076905;28;20033;-82
2022/09/12 01:53:43;;;;;;;6.47;5.60;;;;;;;14.03;72.63;99023.25;5059313;28;20488;-82
2022/09/12 01:56:21;;;;;;;7.47;5.68;;;;;;;13.92;72.53;99015.44;5068956;28;20020;-83
2022/09/12 01:59:09;;;;;;;9.55;6.57;;;;;;;13.81;72.46;98997.72;5061959;28;20036;-82
2022/09/12 02:01:45;;;;;;;9.25;6.20;;;;;;;13.71;72.47;99003.06;5063096;28;20111;-83
2022/09/12 02:04:22;;;;;;;15.13;9.43;;;;;;;11.89;77.74;99004.59;5061345;28;20610;-82
2022/09/12 02:07:32;;;;;;;13.52;10.43;;;;;;;11.51;80.36;99026.06;5078141;28;20127;-82
2022/09/12 02:10:17;;;;;;;13.98;10.57;;;;;;;11.21;81.28;99015.00;5048072;28;20048;-83
2022/09/12 02:13:00;;;;;;;8.73;6.80;;;;;;;12.17;79.71;99018.75;5065562;28;20455;-82
2022/09/12 02:15:42;;;;;;;8.32;6.93;;;;;;;13.18;75.55;99006.88;5048851;28;20025;-82
2022/09/12 02:18:17;;;;;;;7.50;5.75;;;;;;;13.61;74.05;99014.56;5063218;28;20480;-83
2022/09/12 02:20:46;;;;;;;8.88;6.25;;;;;;;13.53;73.23;98999.81;5049217;28;21115;-82
2022/09/12 02:23:21;;;;;;;12.55;6.80;;;;;;;13.54;73.92;99014.03;5027877;28;20025;-83
2022/09/12 02:25:51;;;;;;;9.88;6.70;;;;;;;13.69;73.01;99013.25;5062469;28;20032;-83
2022/09/12 02:28:34;;;;;;;9.43;6.20;;;;;;;13.80;72.77;99018.38;5066118;28;20115;-82
2022/09/12 02:31:27;;;;;;;9.98;6.68;;;;;;;13.73;72.63;99019.69;5065069;28;20040;-82
2022/09/12 02:34:14;;;;;;;8.63;6.30;;;;;;;13.77;72.84;99016.22;5066385;28;20364;-82
2022/09/12 02:36:50;;;;;;;6.85;6.00;;;;;;;13.66;72.74;99011.09;5066695;28;20027;-82
2022/09/12 02:39:20;;;;;;;11.23;7.05;;;;;;;13.35;72.53;98980.69;5063186;28;20043;-82
2022/09/12 02:41:57;;;;;;;9.18;5.97;;;;;;;13.56;72.58;98986.94;5062215;28;20533;-82
2022/09/12 02:44:25;;;;;;;7.28;6.00;;;;;;;13.58;72.55;98977.56;5050971;28;20029;-82
2022/09/12 02:46:56;;;;;;;9.05;6.47;;;;;;;13.77;72.44;99002.00;5040868;28;20036;-82
2022/09/12 02:49:22;;;;;;;8.80;7.25;;;;;;;13.66;72.55;98978.91;5059600;28;20025;-82
2022/09/12 02:51:48;;;;;;;10.75;6.53;;;;;;;13.76;72.13;98992.34;5054431;28;20502;-82
2022/09/12 02:54:16;;;;;;;10.90;6.78;;;;;;;13.77;72.13;98993.94;5065409;28;20040;-81
2022/09/12 02:56:43;;;;;;;9.05;6.57;;;;;;;13.70;72.34;98996.06;5067805;28;20036;-83
2022/09/12 02:59:12;;;;;;;9.15;6.88;;;;;;;13.68;72.40;98990.16;5066958;28;20035;-82
2022/09/12 03:01:52;;;;;;;9.43;6.78;;;;;;;13.73;72.35;98992.88;5065258;28;20556;-83
2022/09/12 03:04:43;;;;;;;18.42;11.40;;;;;;;12.88;73.92;98987.94;5066454;28;20090;-82
2022/09/12 03:07:28;;;;;;;13.88;9.32;;;;;;;12.89;74.96;98993.03;5057393;28;20074;-82
2022/09/12 03:10:15;;;;;;;27.92;15.40;;;;;;;11.71;78.68;99009.47;5060993;28;20099;-81
2022/09/12 03:13:14;;;;;;;26.65;15.20;;;;;;;11.11;81.27;99001.53;5062193;28;20025;-82
2022/09/12 03:15:51;;;;;;;22.05;14.00;;;;;;;11.46;79.58;98977.09;5077003;28;20024;-82
2022/09/12 03:18:31;;;;;;;18.35;11.27;;;;;;;11.23;80.99;98986.19;5063224;28;20035;-82
2022/09/12 03:21:11;;;;;;;12.32;8.77;;;;;;;11.86;80.75;98998.94;5064566;28;20025;-82
2022/09/12 03:23:42;;;;;;;14.88;9.60;;;;;;;12.63;76.70;98985.91;5062037;28;20086;-82
2022/09/12 03:26:16;;;;;;;11.43;8.57;;;;;;;13.24;74.91;98979.84;5067102;28;20020;-83
2022/09/12 03:28:44;;;;;;;12.73;8.50;;;;;;;13.48;73.97;98969.47;5065538;28;20024;-82
2022/09/12 03:31:17;;;;;;;12.68;9.05;;;;;;;13.48;73.67;98967.59;5033528;28;20029;-82
2022/09/12 03:33:42;;;;;;;13.98;8.85;;;;;;;13.72;73.04;98980.50;5062439;28;20028;-82
2022/09/12 03:36:34;;;;;;;12.20;9.05;;;;;;;13.80;73.21;98996.94;5048393;28;20043;-82
2022/09/12 03:38:59;;;;;;;11.52;8.23;;;;;;;13.75;73.22;98985.38;5055471;28;20033;-82
2022/09/12 03:41:24;;;;;;;12.00;8.85;;;;;;;13.68;73.22;98974.06;5050929;28;20078;-83
2022/09/12 03:43:50;;;;;;;13.15;9.93;;;;;;;13.14;74.70;98968.28;5042501;28;21539;-83
2022/09/12 03:46:15;;;;;;;20.45;13.45;;;;;;;12.93;75.06;98974.59;5047325;28;20086;-82
2022/09/12 03:48:41;;;;;;;12.80;9.23;;;;;;;13.23;75.58;98991.66;5061894;28;20082;-82
2022/09/12 03:51:08;;;;;;;12.38;8.73;;;;;;;13.60;74.08;98988.00;5065105;28;20024;-82
2022/09/12 03:53:34;;;;;;;13.30;9.02;;;;;;;13.68;73.44;98984.81;5065556;28;20024;-82
2022/09/12 03:56:06;;;;;;;13.85;11.18;;;;;;;12.79;75.29;98966.22;5060235;28;20040;-82
2022/09/12 03:58:32;;;;;;;11.52;8.98;;;;;;;13.28;74.83;98996.22;5061174;28;20451;-81
2022/09/12 04:00:58;;;;;;;10.45;8.50;;;;;;;13.22;74.67;98992.69;5043087;28;20032;-82
2022/09/12 04:03:23;;;;;;;13.35;9.52;;;;;;;13.39;74.21;98989.81;5060113;28;20036;-82
2022/09/12 04:05:49;;;;;;;15.77;9.48;;;;;;;12.75;76.47;98975.84;5029942;28;20095;-80
2022/09/12 04:08:14;;;;;;;15.90;10.07;;;;;;;13.39;74.77;98997.84;5053074;28;20031;-80
2022/09/12 04:10:40;;;;;;;20.70;10.88;;;;;;;13.33;74.07;98983.63;5048002;28;20028;-80
2022/09/12 04:13:05;;;;;;;28.10;12.90;;;;;;;11.87;79.44;99005.91;5064720;28;20033;-80
2022/09/12 04:15:31;;;;;;;25.52;14.85;;;;;;;11.32;82.01;99000.72;5062435;28;20031;-80
2022/09/12 04:17:56;;;;;;;32.17;14.52;;;;;;;10.76;83.98;98982.38;5058315;28;20434;-80
2022/09/12 04:20:22;;;;;;;23.88;16.20;;;;;;;10.60;84.10;98972.50;5059532;28;20033;-80
2022/09/12 04:22:47;;;;;;;19.92;14.50;;;;;;;10.56;84.84;98988.22;5060727;28;20024;-80
2022/09/12 04:25:13;;;;;;;24.52;15.77;;;;;;;10.51;84.60;98991.63;5067824;28;20032;-80
2022/09/12 04:27:38;;;;;;;28.35;15.32;;;;;;;10.52;85.57;99006.59;5029394;28;20033;-79
2022/09/12 04:30:04;;;;;;;28.35;16.83;;;;;;;10.33;86.05;98996.41;5054797;28;20044;-80
2022/09/12 04:32:30;;;;;;;28.80;18.05;;;;;;;10.34;87.06;99009.50;5020139;28;20044;-80
2022/09/12 04:34:56;;;;;;;21.73;14.45;;;;;;;10.31;87.23;99011.88;5059097;28;20481;-80
2022/09/12 04:37:22;;;;;;;28.65;16.88;;;;;;;10.14;87.59;98997.69;5056478;28;20629;-81
2022/09/12 04:39:48;;;;;;;30.45;18.05;;;;;;;10.19;86.89;98995.09;5073918;28;20118;-81
2022/09/12 04:42:14;;;;;;;23.67;14.57;;;;;;;10.14;86.55;98977.16;5074796;28;20029;-81
2022/09/12 04:44:40;;;;;;;16.20;9.85;;;;;;;11.61;82.04;98969.25;5089377;28;20020;-81
2022/09/12 04:47:05;;;;;;;12.98;9.88;;;;;;;12.78;78.06;99004.75;5090350;28;20032;-81
2022/09/12 04:49:31;;;;;;;11.45;8.57;;;;;;;13.12;76.27;99002.56;5037694;28;20059;-81
2022/09/12 04:51:56;;;;;;;12.82;8.57;;;;;;;13.18;75.10;98991.63;5046737;28;20143;-81
2022/09/12 04:54:21;;;;;;;14.80;10.23;;;;;;;13.14;75.36;98995.09;5051921;28;20481;-81
2022/09/12 04:56:48;;;;;;;26.73;16.20;;;;;;;11.80;80.01;99016.81;5055826;28;20042;-81
2022/09/12 04:59:15;;;;;;;17.33;10.45;;;;;;;12.47;78.48;98979.66;5073762;28;20729;-82
2022/09/12 05:01:41;;;;;;;13.50;9.60;;;;;;;12.92;76.79;98984.50;5072427;28;20070;-81
2022/09/12 05:04:09;;;;;;;21.45;14.07;;;;;;;12.92;76.06;98995.22;5072958;28;20066;-81
2022/09/12 05:06:36;;;;;;;21.70;15.40;;;;;;;12.47;77.53;98976.19;5040010;28;20032;-81
2022/09/12 05:09:04;;;;;;;20.88;14.65;;;;;;;11.78;80.58;99000.19;5072648;28;20146;-81
2022/09/12 05:11:31;;;;;;;26.60;15.95;;;;;;;11.41;83.16;99009.91;5069985;28;20385;-81
2022/09/12 05:13:57;;;;;;;22.35;14.98;;;;;;;11.31;84.21;99018.59;5070750;28;20033;-81
2022/09/12 05:16:24;;;;;;;18.98;11.52;;;;;;;11.01;85.33;99004.88;5070642;28;20047;-81
2022/09/12 05:18:50;;;;;;;36.60;16.23;;;;;;;10.86;86.53;98983.31;5074319;28;20488;-81
2022/09/12 05:21:19;;;;;;;35.40;15.63;;;;;;;10.76;88.03;99001.06;5071839;28;20033;-81
2022/09/12 05:23:46;;;;;;;18.10;13.10;;;;;;;10.79;87.49;99001.34;5064916;28;20040;-80
2022/09/12 05:26:14;;;;;;;15.07;10.98;;;;;;;10.75;87.57;98994.91;5064897;28;20506;-81
2022/09/12 05:28:40;;;;;;;15.60;10.88;;;;;;;10.93;86.80;98997.28;5065543;28;20051;-81
2022/09/12 05:31:09;;;;;;;17.58;11.70;;;;;;;11.62;83.94;99011.75;5047974;28;20037;-81
2022/09/12 05:33:36;;;;;;;12.85;9.05;;;;;;;11.24;85.77;99020.69;5067937;28;20028;-81
2022/09/12 05:36:03;;;;;;;14.25;11.27;;;;;;;11.06;86.63;98994.25;5054985;28;20033;-81
2022/09/12 05:38:29;;;;;;;17.13;11.48;;;;;;;11.27;85.84;99024.69;5066892;28;20155;-81
2022/09/12 05:41:06;;;;;;;38.90;13.40;;;;;;;10.95;85.61;99013.88;5064126;28;20495;-81
2022/09/12 05:43:36;;;;;;;31.00;12.60;;;;;;;10.70;87.04;99026.88;5072252;28;20032;-81
2022/09/12 05:46:04;;;;;;;22.85;12.52;;;;;;;10.63;87.64;99022.75;5072967;28;20040;-80
2022/09/12 05:48:29;;;;;;;15.80;11.65;;;;;;;10.16;88.03;99004.41;5060197;28;20024;-81
2022/09/12 05:51:14;;;;;;;24.65;13.13;;;;;;;10.17;88.98;99019.38;5072451;28;20434;-80
2022/09/12 05:53:39;;;;;;;17.23;10.18;;;;;;;10.27;88.30;99016.84;5067240;28;20032;-81
2022/09/12 05:56:11;;;;;;;22.90;12.90;;;;;;;10.12;88.40;99023.78;5053845;28;20601;-80
2022/09/12 05:58:42;;;;;;;10.13;8.77;;;;;;;10.81;88.64;99035.84;5072595;28;20021;-80
2022/09/12 06:01:11;;;;;;;12.40;9.30;;;;;;;11.89;82.97;99034.00;5073746;28;20031;-81
2022/09/12 06:03:43;;;;;;;18.20;10.55;;;;;;;11.04;84.82;99027.63;5072529;28;20111;-80
2022/09/12 06:06:12;;;;;;;21.10;11.93;;;;;;;10.92;86.18;99032.25;5082183;28;20074;-81
2022/09/12 06:08:39;;;;;;;23.92;11.50;;;;;;;10.51;87.35;99026.31;5052661;28;20508;-81
2022/09/12 06:11:06;;;;;;;17.52;12.10;;;;;;;10.80;87.68;99044.91;5052667;28;20025;-81
2022/09/12 06:13:34;;;;;;;14.45;10.52;;;;;;;10.90;88.18;99043.16;5069225;28;20040;-81
2022/09/12 06:16:07;;;;;;;7.85;6.28;;;;;;;11.60;85.69;99031.81;5054056;28;20075;-81
2022/09/12 06:18:35;;;;;;;7.88;6.43;;;;;;;12.87;80.16;99043.41;5073907;28;20456;-81
2022/09/12 06:21:03;;;;;;;11.80;10.13;;;;;;;11.80;83.69;99034.69;5072729;28;20032;-80
2022/09/12 06:23:29;;;;;;;8.05;7.20;;;;;;;12.31;82.41;99049.38;5082886;28;20058;-81
2022/09/12 06:25:54;;;;;;;13.30;10.18;;;;;;;11.63;84.78;99034.78;5092414;28;20028;-80
2022/09/12 06:28:20;;;;;;;10.98;9.27;;;;;;;11.95;83.87;99045.56;5082041;28;20044;-81
2022/09/12 06:30:45;;;;;;;10.70;7.90;;;;;;;11.75;85.15;99018.63;5061955;28;20049;-81
2022/09/12 06:33:11;;;;;;;7.18;5.78;;;;;;;12.79;80.35;99009.06;5072222;28;20580;-81
2022/09/12 06:35:37;;;;;;;22.15;10.63;;;;;;;11.51;84.30;99031.41;5072267;28;20123;-80
2022/09/12 06:38:03;;;;;;;32.08;12.60;;;;;;;10.82;87.58;99035.59;5071195;28;20040;-80
2022/09/12 06:40:29;;;;;;;22.52;12.15;;;;;;;10.92;88.27;99013.56;5082663;28;20105;-80
2022/09/12 06:42:54;;;;;;;18.33;11.88;;;;;;;10.96;88.47;99031.53;5093663;28;20032;-80
2022/09/12 06:45:20;;;;;;;23.17;9.50;;;;;;;10.97;88.39;99005.59;5092326;28;20116;-80
2022/09/12 06:47:45;;;;;;;20.10;11.48;;;;;;;11.16;88.01;99031.00;5092061;28;20035;-81
2022/09/12 06:50:11;;;;;;;11.35;7.65;;;;;;;12.58;82.36;99010.78;5072144;28;20028;-80
2022/09/12 06:52:36;;;;;;;6.00;5.43;;;;;;;12.72;81.61;99019.19;5057860;28;20059;-80
2022/09/12 06:55:02;;;;;;;6.35;4.80;;;;;;;13.72;77.67;99018.06;5043505;28;20541;-81
2022/09/12 06:57:30;;;;;;;6.60;4.85;;;;;;;13.88;76.05;99004.44;5071691;28;20557;-81
2022/09/12 06:59:55;;;;;;;6.05;4.00;;;;;;;14.11;75.83;99021.91;5055571;28;20020;-81
2022/09/12 07:02:21;;;;;;;4.05;3.65;;;;;;;14.30;74.71;99009.63;5038328;28;20475;-81
2022/09/12 07:04:48;;;;;;;4.80;3.90;;;;;;;14.24;74.68;99010.66;5054172;28;20032;-81
2022/09/12 07:07:14;;;;;;;5.18;4.68;;;;;;;13.55;77.82;99004.88;5045297;28;20064;-81
2022/09/12 07:09:39;;;;;;;8.82;6.78;;;;;;;12.97;80.75;99024.72;5072738;28;20174;-81
2022/09/12 07:12:05;;;;;;;6.50;5.63;;;;;;;13.18;80.17;99021.09;5066992;28;20033;-81
2022/09/12 07:14:30;;;;;;;5.47;4.97;;;;;;;13.11;79.65;98996.41;5081354;28;20499;-81
2022/09/12 07:16:55;;;;;;;11.48;8.73;;;;;;;12.92;81.76;98999.75;5081713;28;20115;-81
2022/09/12 07:19:21;;;;;;;13.50;10.77;;;;;;;12.19;87.04;99011.28;5055121;28;20086;-81
2022/09/12 07:21:46;;;;;;;5.63;4.40;;;;;;;12.64;83.82;99017.81;5082976;28;20472;-81
2022/09/12 07:24:12;;;;;;;6.18;5.50;;;;;;;12.79;83.82;99014.41;5051637;28;20044;-80
2022/09/12 07:26:38;;;;;;;6.80;5.15;;;;;;;12.86;83.02;99017.69;5069532;28;20028;-81
2022/09/12 07:29:04;;;;;;;12.90;11.10;;;;;;;12.25;87.05;99000.38;5071105;28;20047;-80
2022/09/12 07:31:29;;;;;;;7.60;6.72;;;;;;;12.85;82.49;98989.28;5052777;28;20032;-81
2022/09/12 07:33:55;;;;;;;16.58;11.27;;;;;;;12.57;87.23;99014.53;5064230;28;20056;-81
2022/09/12 07:36:23;;;;;;;11.98;10.18;;;;;;;12.75;85.45;98999.94;5068800;28;20473;-81
2022/09/12 07:38:54;;;;;;;14.98;11.65;;;;;;;12.87;86.00;98994.34;5069537;28;20029;-81
2022/09/12 07:41:24;;;;;;;17.45;10.63;;;;;;;12.73;87.02;99015.47;5071230;28;20032;-81
2022/09/12 07:43:54;;;;;;;6.45;5.25;;;;;;;13.47;79.82;98987.44;5069419;28;20032;-80
2022/09/12 07:46:21;;;;;;;11.30;9.00;;;;;;;13.02;84.75;99005.19;5068983;28;20032;-81
2022/09/12 07:48:51;;;;;;;15.50;11.40;;;;;;;12.44;89.30;98998.09;5049579;28;20725;-81
2022/09/12 07:51:17;;;;;;;16.45;10.70;;;;;;;12.39;88.40;99016.78;5069258;28;20103;-82
2022/09/12 07:53:44;;;;;;;16.10;12.32;;;;;;;12.52;88.63;99016.34;5065557;28;20036;-81
2022/09/12 07:56:10;;;;;;;6.70;5.50;;;;;;;12.70;85.73;98999.88;5059602;28;20032;-81
2022/09/12 07:58:37;;;;;;;15.80;11.55;;;;;;;12.89;85.79;98990.34;5066067;28;20112;-81
2022/09/12 08:01:07;;;;;;;10.85;9.50;;;;;;;12.63;89.40;98992.09;5069602;28;20090;-81
2022/09/12 08:03:35;;;;;;;5.60;4.80;;;;;;;13.81;80.61;98995.84;5080062;28;20028;-81
2022/09/12 08:06:03;;;;;;;11.60;8.32;;;;;;;14.17;79.44;99002.06;5070731;28;20024;-81
2022/09/12 08:08:28;;;;;;;6.18;5.10;;;;;;;14.34;77.93;99009.88;5073054;28;20052;-81
2022/09/12 08:10:58;;;;;;;5.05;4.55;;;;;;;14.30;78.10;98995.38;5069022;28;20560;-81
2022/09/12 08:13:25;;;;;;;14.00;11.35;;;;;;;13.95;83.56;99001.50;5049156;28;20033;-82
2022/09/12 08:15:50;;;;;;;6.65;5.28;;;;;;;14.19;78.56;98991.88;5052650;28;20034;-81
2022/09/12 08:18:15;;;;;;;6.53;5.57;;;;;;;14.52;76.66;99002.09;5053075;28;20383;-82
2022/09/12 08:20:42;;;;;;;6.20;5.10;;;;;;;14.53;77.37;99019.00;5048693;28;20082;-81
2022/09/12 08:23:07;;;;;;;17.08;12.82;;;;;;;13.68;85.69;99014.31;5069595;28;20503;-81
2022/09/12 08:25:33;;;;;;;13.57;9.90;;;;;;;13.37;85.26;99000.81;5070005;28;20024;-81
2022/09/12 08:28:00;;;;;;;18.92;13.38;;;;;;;13.11;87.94;99001.75;5051602;28;20036;-81
2022/09/12 08:30:25;;;;;;;6.30;5.40;;;;;;;13.99;81.72;99014.13;5064477;28;20108;-81
2022/09/12 08:32:51;;;;;;;19.27;13.65;;;;;;;13.74;86.46;99015.97;5069434;28;20123;-81
2022/09/12 08:35:16;;;;;;;9.63;7.57;;;;;;;14.08;81.52;99001.78;5061877;28;20033;-81
2022/09/12 08:37:42;;;;;;;11.98;8.70;;;;;;;13.45;86.21;99005.66;5058166;28;20048;-81
2022/09/12 08:40:14;;;;;;;13.25;10.20;;;;;;;13.12;90.31;99002.56;5042469;28;20493;-81
2022/09/12 08:43:17;;;;;;;10.07;6.47;;;;;;;14.69;79.64;99010.69;5062309;28;20102;-81
2022/09/12 08:45:53;;;;;;;18.65;12.45;;;;;;;13.89;87.43;99008.72;5065560;28;20349;-81
2022/09/12 08:48:18;;;;;;;27.88;14.07;;;;;;;13.42;89.97;99005.38;5072692;28;20036;-81
2022/09/12 08:50:46;;;;;;;26.27;16.05;;;;;;;13.47;91.93;99014.28;5078825;28;20036;-81
2022/09/12 08:53:26;;;;;;;26.25;16.83;;;;;;;13.33;91.62;98997.03;5050148;28;20124;-81
2022/09/12 08:55:58;;;;;;;25.08;16.30;;;;;;;13.27;90.99;98992.72;5082590;28;20032;-81
2022/09/12 08:58:26;;;;;;;12.90;8.32;;;;;;;14.53;82.63;98997.50;5068513;28;20020;-82
2022/09/12 09:01:34;;;;;;;25.17;14.70;;;;;;;14.15;87.31;99007.69;5068335;28;20046;-81
2022/09/12 09:04:19;;;;;;;;;;;;;;;14.67;84.69;98998.59;5056647;28;20044;-81
2022/09/12 09:07:10;;;;;;;8.52;6.57;;;;;;;14.99;80.47;98994.47;5061153;28;19952;-81
2022/09/12 09:10:07;;;;;;;10.70;7.68;;;;;;;15.17;79.65;98982.34;5068313;28;20090;-82
2022/09/12 09:12:48;;;;;;;25.23;15.60;;;;;;;15.03;85.00;98986.66;5068154;28;20445;-81
2022/09/12 09:15:23;;;;;;;8.90;6.53;;;;;;;15.09;81.86;98998.22;5061979;28;20021;-81
2022/09/12 09:17:59;;;;;;;19.17;12.32;;;;;;;14.95;85.51;98973.78;5069031;28;20480;-81
2022/09/12 09:20:26;;;;;;;9.95;6.65;;;;;;;15.44;80.66;98987.38;5070279;28;20099;-81
2022/09/12 09:22:57;;;;;;;11.32;7.95;;;;;;;15.66;79.92;98985.88;5060011;28;20032;-82
2022/09/12 09:25:28;;;;;;;16.35;12.15;;;;;;;15.40;83.95;98975.50;5053398;28;20048;-81
2022/09/12 09:28:21;;;;;;;14.00;11.45;;;;;;;15.55;84.31;98994.31;5070109;28;20039;-81
2022/09/12 09:30:47;;;;;;;19.10;13.07;;;;;;;15.21;86.13;98983.38;5071879;28;20020;-81
2022/09/12 09:33:26;;;;;;;15.68;8.57;;;;;;;15.81;83.32;98976.13;5048021;28;20085;-82
2022/09/12 09:36:13;;;;;;;16.92;11.85;;;;;;;15.64;85.37;98979.16;5069029;28;20027;-81
2022/09/12 09:39:04;;;;;;;8.43;7.30;;;;;;;15.94;80.97;98962.84;5066048;28;20020;-82
2022/09/12 09:41:36;;;;;;;12.90;9.07;;;;;;;16.38;80.39;98977.03;5073488;28;20028;-82
2022/09/12 09:44:02;;;;;;;12.63;8.88;;;;;;;16.34;80.01;98978.69;5072344;28;20043;-82
2022/09/12 09:46:27;;;;;;;20.52;10.40;;;;;;;16.20;81.18;98966.97;5073456;28;20024;-81
2022/09/12 09:48:55;;;;;;;10.07;6.88;;;;;;;16.57;78.62;98958.31;5069125;28;20086;-81
2022/09/12 09:51:26;;;;;;;12.55;9.93;;;;;;;16.43;80.39;98957.31;5072439;28;20029;-81
2022/09/12 09:54:00;;;;;;;11.05;7.00;;;;;;;16.76;77.69;98961.88;5071741;28;20041;-82
2022/09/12 09:56:35;;;;;;;13.82;7.07;;;;;;;16.91;77.09;98947.41;5059088;28;20523;-82
2022/09/12 09:59:32;;;;;;;12.07;9.13;;;;;;;16.95;77.69;98959.25;5068922;28;20029;-82
2022/09/12 10:02:19;;;;;;;;;;;;;;;17.35;74.99;98957.94;5052250;28;20559;-82
2022/09/12 10:04:56;;;;;;;9.07;7.32;;;;;;;17.25;76.34;98942.72;5061424;28;19913;-81
2022/09/12 10:07:23;;;;;;;7.15;5.47;;;;;;;17.42;74.16;98953.81;5073780;28;20396;-81
2022/09/12 10:10:15;;;;;;;8.50;5.45;;;;;;;17.57;74.31;98944.72;5069856;28;20024;-82
2022/09/12 10:12:41;;;;;;;9.57;6.72;;;;;;;17.63;74.70;98954.34;5071293;28;20074;-81
2022/09/12 10:15:19;;;;;;;9.50;6.50;;;;;;;17.85;75.52;98947.28;5088378;28;20056;-81
2022/09/12 10:17:48;;;;;;;10.65;6.07;;;;;;;17.86;72.98;98948.09;5069558;28;20024;-82
2022/09/12 10:20:38;;;;;;;7.63;6.07;;;;;;;17.67;72.40;98945.38;5060969;28;20378;-81
2022/09/12 10:23:33;;;;;;;7.90;6.05;;;;;;;17.85;72.63;98938.38;5062465;28;20032;-82
2022/09/12 10:26:03;;;;;;;4.45;4.05;;;;;;;18.21;71.47;98942.13;5052711;28;20028;-81
2022/09/12 10:28:53;;;;;;;8.00;5.25;;;;;;;18.28;70.90;98937.13;5052506;28;20524;-81
2022/09/12 10:31:41;;;;;;;5.63;4.03;;;;;;;18.36;69.74;98905.94;5064200;28;20408;-81
2022/09/12 10:34:20;;;;;;;5.68;4.57;;;;;;;18.32;70.41;98913.03;5067625;28;20035;-82
2022/09/12 10:36:46;;;;;;;7.25;4.35;;;;;;;18.58;70.24;98933.16;5067020;28;20020;-82
2022/09/12 10:39:18;;;;;;;6.07;4.85;;;;;;;18.54;69.93;98924.03;5052762;28;20216;-81
2022/09/12 10:41:44;;;;;;;5.63;4.10;;;;;;;18.47;68.87;98912.81;5068728;28;20027;-81
2022/09/12 10:44:24;;;;;;;5.55;4.20;;;;;;;18.57;67.79;98918.00;5073800;28;20043;-81
2022/09/12 10:46:50;;;;;;;5.78;4.20;;;;;;;18.60;68.14;98903.91;5074354;28;20028;-82
2022/09/12 10:49:19;;;;;;;4.40;3.97;;;;;;;18.79;68.48;98920.03;5078606;28;20452;-82
2022/09/12 10:51:45;;;;;;;5.50;4.03;;;;;;;18.88;67.77;98916.34;5071652;28;20032;-82
2022/09/12 10:54:12;;;;;;;5.95;3.97;;;;;;;18.50;63.69;98896.78;5066515;28;20040;-81
2022/09/12 10:56:55;;;;;;;5.07;3.78;;;;;;;18.56;63.07;98917.22;5054859;28;20026;-82
2022/09/12 10:59:33;;;;;;;10.77;3.67;;;;;;;18.78;64.12;98907.63;5070436;28;20036;-81
2022/09/12 11:02:26;;;;;;;4.38;3.97;;;;;;;18.96;67.13;98904.81;5070201;28;20434;-81
2022/09/12 11:05:19;;;;;;;6.07;4.28;;;;;;;19.09;65.77;98909.41;5073881;28;20063;-81
2022/09/12 11:07:49;;;;;;;4.13;3.60;;;;;;;19.32;65.58;98910.28;5074592;28;20027;-81
2022/09/12 11:10:29;;;;;;;3.35;2.90;;;;;;;19.23;61.52;98898.56;5071919;28;20025;-82
2022/09/12 11:13:14;;;;;;;5.10;3.63;;;;;;;19.44;64.50;98891.63;5066813;28;20035;-82
2022/09/12 11:16:04;;;;;;;2.92;2.72;;;;;;;19.63;61.99;98905.84;5067240;28;20023;-81
2022/09/12 11:19:27;;;;;;;4.20;2.97;;;;;;;19.71;57.99;98891.56;5071414;28;20625;-82
2022/09/12 11:22:30;;;;;;;3.53;3.22;;;;;;;20.00;63.36;98910.91;5032943;28;20171;-81
2022/09/12 11:25:14;;;;;;;3.08;2.83;;;;;;;20.21;62.59;98905.00;5051348;28;20028;-82
2022/09/12 11:27:42;;;;;;;3.45;2.90;;;;;;;20.33;60.24;98895.22;5076542;28;20028;-82
2022/09/12 11:30:11;;;;;;;3.30;3.00;;;;;;;20.37;61.96;98895.38;5069651;28;20032;-82
2022/09/12 11:32:54;;;;;;;4.47;3.10;;;;;;;20.44;61.61;98888.41;5056781;28;20032;-82
2022/09/12 11:35:26;;;;;;;2.80;2.50;;;;;;;20.53;60.92;98881.09;5071979;28;20020;-82
2022/09/12 11:38:29;;;;;;;3.78;2.60;;;;;;;20.63;61.22;98882.75;5070382;28;20032;-81
2022/09/12 11:41:33;;;;;;;2.80;2.60;;;;;;;20.67;58.42;98886.44;5085406;28;20020;-81
2022/09/12 11:44:10;;;;;;;3.47;2.95;;;;;;;20.66;61.09;98882.13;5069537;28;20070;-81
2022/09/12 11:46:41;;;;;;;4.03;3.10;;;;;;;20.57;59.27;98860.41;5074549;28;20032;-81
2022/09/12 11:49:12;;;;;;;3.08;2.45;;;;;;;20.69;60.75;98884.19;5046586;28;20037;-81